Time;durP1;ratioP1;P1;durP2;ratioP2;P2;SDS_P1;SDS_P2;PMS_P1;PMS_P2;Temp;Humidity;BMP_temperature;BMP_pressure;BME280_temperature;BME280_humidity;BME280_pressure;Samples;Min_cycle;Max_cycle;Signal;HPM_P1;HPM_P2
2022/05/14 00:00:35;;;;;;;;;;;11.10;99.90;;;;;;5075875;28;20320;-69
2022/05/14 00:03:00;;;;;;;;;;;11.10;99.90;;;;;;5078910;28;20343;-69
2022/05/14 00:05:26;;;;;;;;;;;11.10;99.90;;;;;;5105693;28;19921;-69
2022/05/14 00:07:52;;;;;;;;;;;11.20;99.90;;;;;;5074427;28;20371;-68
2022/05/14 00:10:19;;;;;;;;;;;11.20;99.90;;;;;;5075131;28;19934;-68
2022/05/14 00:15:39;;;;;;;;;;;11.20;99.90;;;;;;5111003;27;19924;-68
2022/05/14 00:18:05;;;;;;;;;;;11.20;99.90;;;;;;5077814;28;20643;-68
2022/05/14 00:20:31;;;;;;;;;;;11.20;99.90;;;;;;5108893;27;19978;-69
2022/05/14 00:22:57;;;;;;;;;;;11.20;99.90;;;;;;5078340;28;20325;-69
2022/05/14 00:25:23;;;;;;;;;;;11.30;99.90;;;;;;5082219;28;19928;-67
2022/05/14 00:27:49;;;;;;;;;;;11.20;99.90;;;;;;5082399;28;19923;-68
2022/05/14 00:30:15;;;;;;;;;;;11.20;99.90;;;;;;5080332;28;19928;-68
2022/05/14 00:32:40;;;;;;;;;;;11.20;99.90;;;;;;5066031;28;19993;-69
2022/05/14 00:35:06;;;;;;;;;;;11.20;99.90;;;;;;5085479;28;19978;-69
2022/05/14 00:37:32;;;;;;;;;;;11.20;99.90;;;;;;5076795;28;20381;-69
2022/05/14 00:39:59;;;;;;;;;;;11.20;99.90;;;;;;5076989;28;19924;-68
2022/05/14 00:42:24;;;;;;;;;;;11.20;99.90;;;;;;5061552;28;20341;-68
2022/05/14 00:44:50;;;;;;;;;;;11.20;99.90;;;;;;5080939;28;20011;-68
2022/05/14 00:47:17;;;;;;;;;;;11.20;99.90;;;;;;5080337;28;19942;-68
2022/05/14 00:49:42;;;;;;;;;;;11.10;99.90;;;;;;5061899;28;20022;-69
2022/05/14 00:52:12;;;;;;;;;;;11.10;99.90;;;;;;5079393;28;20101;-68
2022/05/14 00:54:41;;;;;;;;;;;11.00;99.90;;;;;;5085130;28;19970;-68
2022/05/14 00:57:08;;;;;;;;;;;11.00;99.90;;;;;;5067027;28;20263;-68
2022/05/14 00:59:35;;;;;;;;;;;11.00;99.90;;;;;;5079724;28;19921;-68
2022/05/14 01:02:00;;;;;;;;;;;10.90;99.90;;;;;;5086252;28;20383;-68
2022/05/14 01:04:26;;;;;;;;;;;10.80;99.90;;;;;;5059320;28;19920;-69
2022/05/14 01:07:05;;;;;;;;;;;10.70;99.90;;;;;;5078201;28;19931;-68
2022/05/14 01:09:31;;;;;;;;;;;10.60;99.90;;;;;;5075946;28;19924;-68
2022/05/14 01:11:56;;;;;;;;;;;10.50;99.90;;;;;;5106661;27;19967;-67
2022/05/14 01:14:22;;;;;;;;;;;10.50;99.90;;;;;;5105192;27;20383;-68
2022/05/14 01:16:47;;;;;;;;;;;10.40;99.90;;;;;;5076569;28;19928;-67
2022/05/14 01:19:13;;;;;;;;;;;10.50;99.90;;;;;;5094588;27;19928;-67
2022/05/14 01:21:38;;;;;;;;;;;10.50;99.90;;;;;;5106289;27;19926;-68
2022/05/14 01:26:55;;;;;;;;;;;10.50;99.90;;;;;;5078871;28;19991;-68
2022/05/14 01:29:24;;;;;;;;;;;10.40;99.90;;;;;;5076653;28;19955;-67
2022/05/14 01:31:50;;;;;;;;;;;10.40;99.90;;;;;;5079526;28;19950;-68
2022/05/14 01:34:19;;;;;;;;;;;10.40;99.90;;;;;;5078676;28;19925;-68
2022/05/14 01:36:45;;;;;;;;;;;10.30;99.90;;;;;;5075793;28;19927;-68
2022/05/14 01:39:11;;;;;;;;;;;10.30;99.90;;;;;;5086113;28;20389;-68
2022/05/14 01:41:36;;;;;;;;;;;10.20;99.90;;;;;;5083420;28;19920;-68
2022/05/14 01:44:02;;;;;;;;;;;10.20;99.90;;;;;;5081103;28;20298;-67
2022/05/14 01:46:28;;;;;;;;;;;10.20;99.90;;;;;;5084472;28;19928;-67
2022/05/14 01:48:53;;;;;;;;;;;10.20;99.90;;;;;;5085927;28;20302;-68
2022/05/14 01:51:19;;;;;;;;;;;10.20;99.90;;;;;;5084133;28;19920;-68
2022/05/14 01:53:45;;;;;;;;;;;10.20;99.90;;;;;;5092009;28;19931;-68
2022/05/14 01:56:11;;;;;;;;;;;10.10;99.90;;;;;;5089042;28;19946;-68
2022/05/14 01:58:36;;;;;;;;;;;10.10;99.90;;;;;;5091769;28;19967;-68
2022/05/14 02:01:17;;;;;;;;;;;10.00;99.90;;;;;;5092470;28;19927;-68
2022/05/14 02:03:44;;;;;;;;;;;10.00;99.90;;;;;;5084524;28;19985;-69
2022/05/14 02:06:10;;;;;;;;;;;10.00;99.90;;;;;;5110668;27;19986;-68
2022/05/14 02:08:36;;;;;;;;;;;10.00;99.90;;;;;;5082065;28;20374;-67
2022/05/14 02:11:01;;;;;;;;;;;10.10;99.90;;;;;;5084360;28;19920;-68
2022/05/14 02:13:27;;;;;;;;;;;10.10;99.90;;;;;;5091132;28;20106;-68
2022/05/14 02:15:53;;;;;;;;;;;10.10;99.90;;;;;;5090200;28;19932;-68
2022/05/14 02:18:19;;;;;;;;;;;10.10;99.90;;;;;;5096800;28;20318;-67
2022/05/14 02:20:44;;;;;;;;;;;10.10;99.90;;;;;;5091265;28;19924;-68
2022/05/14 02:23:10;;;;;;;;;;;10.20;99.90;;;;;;5078839;28;20016;-69
2022/05/14 02:25:36;;;;;;;;;;;10.30;99.90;;;;;;5083383;28;19928;-69
2022/05/14 02:28:01;;;;;;;;;;;10.30;99.90;;;;;;5085670;28;19924;-69
2022/05/14 02:30:27;;;;;;;;;;;10.30;99.90;;;;;;5078034;28;19920;-68
2022/05/14 02:32:53;;;;;;;;;;;10.30;99.90;;;;;;5088269;28;20027;-69
2022/05/14 02:35:18;;;;;;;;;;;10.40;99.90;;;;;;5082749;28;19928;-68
2022/05/14 02:37:43;;;;;;;;;;;10.40;99.90;;;;;;5081668;28;20432;-68
2022/05/14 02:40:09;;;;;;;;;;;10.40;99.90;;;;;;5088561;28;19927;-68
2022/05/14 02:42:35;;;;;;;;;;;10.40;99.90;;;;;;5091231;28;20018;-68
2022/05/14 02:45:00;;;;;;;;;;;10.40;99.90;;;;;;5069814;28;19969;-68
2022/05/14 02:47:26;;;;;;;;;;;10.40;99.90;;;;;;5068864;28;19924;-68
2022/05/14 02:49:52;;;;;;;;;;;10.40;99.90;;;;;;5086421;28;19921;-68
2022/05/14 02:52:17;;;;;;;;;;;10.40;99.90;;;;;;5087844;28;20385;-69
2022/05/14 02:54:42;;;;;;;;;;;10.50;99.90;;;;;;5086052;28;19950;-68
2022/05/14 02:57:08;;;;;;;;;;;10.50;99.90;;;;;;5089931;28;20356;-68
2022/05/14 02:59:34;;;;;;;;;;;10.50;99.90;;;;;;5108661;27;20348;-67
2022/05/14 03:01:59;;;;;;;;;;;10.50;99.90;;;;;;5084799;28;19978;-68
2022/05/14 03:04:27;;;;;;;;;;;10.40;99.90;;;;;;5075557;28;19924;-67
2022/05/14 03:06:53;;;;;;;;;;;10.40;99.90;;;;;;5109120;27;20573;-67
2022/05/14 03:09:19;;;;;;;;;;;10.40;99.90;;;;;;5088605;28;19920;-67
2022/05/14 03:11:44;;;;;;;;;;;10.40;99.90;;;;;;5089091;28;20014;-68
2022/05/14 03:14:10;;;;;;;;;;;10.30;99.90;;;;;;5089847;28;19969;-67
2022/05/14 03:16:36;;;;;;;;;;;10.40;99.90;;;;;;5069656;28;19931;-67
2022/05/14 03:19:01;;;;;;;;;;;10.30;99.90;;;;;;5089480;28;20019;-67
2022/05/14 03:21:27;;;;;;;;;;;10.20;99.90;;;;;;5088566;28;19920;-67
2022/05/14 03:23:52;;;;;;;;;;;10.20;99.90;;;;;;5092282;28;20355;-67
2022/05/14 03:26:18;;;;;;;;;;;10.20;99.90;;;;;;5087318;28;19950;-67
2022/05/14 03:28:43;;;;;;;;;;;10.10;99.90;;;;;;5083615;28;19977;-67
2022/05/14 03:31:09;;;;;;;;;;;10.20;99.90;;;;;;5082238;28;19934;-67
2022/05/14 03:33:34;;;;;;;;;;;10.20;99.90;;;;;;5062032;28;20295;-67
2022/05/14 03:35:59;;;;;;;;;;;10.20;99.90;;;;;;5079585;28;19924;-67
2022/05/14 03:38:25;;;;;;;;;;;10.20;99.90;;;;;;5096818;28;19927;-67
2022/05/14 03:40:50;;;;;;;;;;;10.20;99.90;;;;;;5085463;28;19920;-67
2022/05/14 03:43:16;;;;;;;;;;;10.10;99.90;;;;;;5088570;28;19920;-68
2022/05/14 03:45:41;;;;;;;;;;;10.00;99.90;;;;;;5089711;28;19946;-67
2022/05/14 03:48:07;;;;;;;;;;;10.00;99.90;;;;;;5083129;28;19931;-67
2022/05/14 03:50:32;;;;;;;;;;;9.90;99.90;;;;;;5082136;28;20375;-67
2022/05/14 03:52:58;;;;;;;;;;;9.90;99.90;;;;;;5084305;28;20405;-67
2022/05/14 03:55:23;;;;;;;;;;;9.80;99.90;;;;;;5080151;28;20401;-67
2022/05/14 03:57:49;;;;;;;;;;;9.80;99.90;;;;;;5092992;28;20360;-67
2022/05/14 04:00:15;;;;;;;;;;;9.70;99.90;;;;;;5083245;28;20334;-67
2022/05/14 04:02:40;;;;;;;;;;;9.70;99.90;;;;;;5060823;28;20011;-68
2022/05/14 04:05:06;;;;;;;;;;;9.80;99.90;;;;;;5109031;28;19920;-67
2022/05/14 04:07:31;;;;;;;;;;;9.80;99.90;;;;;;5093330;28;19927;-67
2022/05/14 04:09:56;;;;;;;;;;;9.70;99.90;;;;;;5086561;28;20035;-67
2022/05/14 04:12:22;;;;;;;;;;;9.70;99.90;;;;;;5085153;28;20017;-67
2022/05/14 04:14:47;;;;;;;;;;;9.80;99.90;;;;;;5090589;28;19924;-67
2022/05/14 04:17:13;;;;;;;;;;;9.70;99.90;;;;;;5086112;28;19927;-67
2022/05/14 04:19:38;;;;;;;;;;;9.70;99.90;;;;;;5085516;28;19928;-67
2022/05/14 04:22:04;;;;;;;;;;;9.70;99.90;;;;;;5083186;28;20287;-67
2022/05/14 04:24:30;;;;;;;;;;;9.70;99.90;;;;;;5097226;28;19951;-67
2022/05/14 04:26:56;;;;;;;;;;;9.80;99.90;;;;;;5083804;28;20061;-67
2022/05/14 04:29:21;;;;;;;;;;;9.80;99.90;;;;;;5089992;28;20440;-67
2022/05/14 04:31:47;;;;;;;;;;;9.80;99.90;;;;;;5071223;28;20264;-67
2022/05/14 04:34:12;;;;;;;;;;;9.80;99.90;;;;;;5093201;28;19959;-67
2022/05/14 04:36:39;;;;;;;;;;;9.90;99.90;;;;;;5076610;28;19959;-66
2022/05/14 04:39:05;;;;;;;;;;;9.90;99.90;;;;;;5080729;28;19920;-67
2022/05/14 04:41:30;;;;;;;;;;;10.00;99.90;;;;;;5083866;28;19927;-66
2022/05/14 04:43:57;;;;;;;;;;;10.10;99.90;;;;;;5084133;28;19927;-67
2022/05/14 04:46:22;;;;;;;;;;;10.10;99.90;;;;;;5065828;28;19975;-67
2022/05/14 04:48:48;;;;;;;;;;;10.10;99.90;;;;;;5109630;28;19924;-67
2022/05/14 04:51:13;;;;;;;;;;;10.20;99.90;;;;;;5107756;28;19924;-67
2022/05/14 04:53:38;;;;;;;;;;;10.20;99.90;;;;;;5082109;28;19925;-68
2022/05/14 04:56:04;;;;;;;;;;;10.20;99.90;;;;;;5086683;28;20278;-68
2022/05/14 04:58:30;;;;;;;;;;;10.30;99.90;;;;;;5083083;28;20291;-68
2022/05/14 05:00:55;;;;;;;;;;;10.30;99.90;;;;;;5072291;28;20554;-67
2022/05/14 05:03:21;;;;;;;;;;;10.30;99.90;;;;;;5115809;27;19920;-67
2022/05/14 05:05:48;;;;;;;;;;;10.40;99.90;;;;;;5075092;28;20333;-68
2022/05/14 05:08:13;;;;;;;;;;;10.30;99.90;;;;;;5106466;27;19970;-68
2022/05/14 05:10:39;;;;;;;;;;;10.40;99.90;;;;;;5088227;28;19920;-68
2022/05/14 05:13:08;;;;;;;;;;;10.50;99.90;;;;;;5107082;27;19975;-68
2022/05/14 05:15:33;;;;;;;;;;;10.60;99.90;;;;;;5082073;28;19924;-68
2022/05/14 05:17:59;;;;;;;;;;;10.60;99.90;;;;;;5072869;28;20019;-68
2022/05/14 05:20:24;;;;;;;;;;;10.70;99.90;;;;;;5076614;28;19964;-68
2022/05/14 05:22:50;;;;;;;;;;;10.80;99.90;;;;;;5064285;28;19977;-71
2022/05/14 05:25:15;;;;;;;;;;;10.80;99.90;;;;;;5069373;28;19928;-70
2022/05/14 05:27:41;;;;;;;;;;;10.90;99.90;;;;;;5080724;28;19966;-73
2022/05/14 05:30:07;;;;;;;;;;;11.00;99.90;;;;;;5088531;28;19963;-70
2022/05/14 05:32:33;;;;;;;;;;;11.10;99.90;;;;;;5090004;28;19975;-71
2022/05/14 05:34:58;;;;;;;;;;;11.10;99.90;;;;;;5090793;28;19971;-70
2022/05/14 05:37:23;;;;;;;;;;;11.20;99.90;;;;;;5089458;28;19924;-75
2022/05/14 05:39:49;;;;;;;;;;;11.40;99.90;;;;;;5086344;28;19965;-76
2022/05/14 05:42:14;;;;;;;;;;;11.60;99.90;;;;;;5091976;28;19920;-76
2022/05/14 05:44:40;;;;;;;;;;;11.60;99.90;;;;;;5078557;28;19920;-75
2022/05/14 05:47:09;;;;;;;;;;;11.60;99.90;;;;;;5091285;28;19920;-74
2022/05/14 05:49:36;;;;;;;;;;;11.70;99.90;;;;;;5104719;28;19979;-74
2022/05/14 05:52:02;;;;;;;;;;;11.80;99.90;;;;;;5083126;28;19974;-76
2022/05/14 05:57:12;;;;;;;;;;;12.00;99.90;;;;;;5100789;28;20002;-73
2022/05/14 05:59:37;;;;;;;;;;;12.10;99.90;;;;;;5074635;28;20422;-73
2022/05/14 06:02:03;;;;;;;;;;;12.20;99.90;;;;;;5087287;28;20346;-72
2022/05/14 06:04:28;;;;;;;;;;;12.30;99.90;;;;;;5088073;28;19920;-73
2022/05/14 06:06:54;;;;;;;;;;;12.30;99.90;;;;;;5106960;27;19932;-72
2022/05/14 06:09:21;;;;;;;;;;;12.30;99.90;;;;;;5089867;28;19920;-73
2022/05/14 06:11:46;;;;;;;;;;;12.30;99.90;;;;;;5100726;28;19924;-73
2022/05/14 06:14:12;;;;;;;;;;;12.40;99.90;;;;;;5066616;28;19956;-71
2022/05/14 06:16:38;;;;;;;;;;;12.40;99.90;;;;;;5086746;28;19963;-73
2022/05/14 06:19:04;;;;;;;;;;;12.50;99.90;;;;;;5086689;28;19923;-72
2022/05/14 06:21:30;;;;;;;;;;;12.60;99.90;;;;;;5088574;28;19926;-71
2022/05/14 06:23:57;;;;;;;;;;;12.70;99.90;;;;;;5084406;28;19925;-71
2022/05/14 06:26:22;;;;;;;;;;;12.70;99.90;;;;;;5082755;28;20298;-73
2022/05/14 06:28:48;;;;;;;;;;;12.80;99.90;;;;;;5071743;28;19924;-71
2022/05/14 06:31:16;;;;;;;;;;;12.90;99.90;;;;;;5083028;28;20361;-73
2022/05/14 06:33:43;;;;;;;;;;;13.00;99.90;;;;;;5087850;28;20371;-74
2022/05/14 06:36:09;;;;;;;;;;;13.00;99.90;;;;;;5090462;28;19962;-73
2022/05/14 06:38:34;;;;;;;;;;;13.10;99.90;;;;;;5086006;28;20373;-73
2022/05/14 06:41:04;;;;;;;;;;;13.20;99.90;;;;;;5068443;28;19920;-73
2022/05/14 06:43:29;;;;;;;;;;;13.30;99.90;;;;;;5104944;27;19920;-73
2022/05/14 06:45:55;;;;;;;;;;;13.40;99.90;;;;;;5084490;28;19931;-72
2022/05/14 06:48:21;;;;;;;;;;;13.60;99.90;;;;;;5088881;28;20427;-70
2022/05/14 06:50:48;;;;;;;;;;;13.60;99.90;;;;;;5086459;28;19931;-73
2022/05/14 06:53:14;;;;;;;;;;;13.70;99.90;;;;;;5072505;28;19928;-70
2022/05/14 06:55:41;;;;;;;;;;;13.80;99.90;;;;;;5090359;28;20022;-73
2022/05/14 06:58:08;;;;;;;;;;;13.90;99.90;;;;;;5088905;28;20069;-73
2022/05/14 07:00:34;;;;;;;;;;;14.00;99.90;;;;;;5093370;28;19957;-70
2022/05/14 07:08:28;;;;;;;;;;;14.40;99.90;;;;;;5108268;28;20736;-71
2022/05/14 07:10:53;;;;;;;;;;;14.50;99.90;;;;;;5099454;28;20002;-72
2022/05/14 07:13:19;;;;;;;;;;;14.70;99.90;;;;;;5107560;28;19930;-71
2022/05/14 07:15:44;;;;;;;;;;;14.80;99.90;;;;;;5093241;28;19927;-70
2022/05/14 07:18:10;;;;;;;;;;;14.90;99.90;;;;;;5114305;27;19946;-72
2022/05/14 07:20:35;;;;;;;;;;;15.00;99.90;;;;;;5110951;27;19921;-72
2022/05/14 07:23:01;;;;;;;;;;;15.10;99.90;;;;;;5109388;27;19923;-71
2022/05/14 07:25:29;;;;;;;;;;;15.20;99.90;;;;;;5089072;28;20234;-72
2022/05/14 07:27:54;;;;;;;;;;;15.30;99.90;;;;;;5083341;28;19920;-74
2022/05/14 07:30:20;;;;;;;;;;;15.40;99.90;;;;;;5087057;28;19920;-72
2022/05/14 07:32:46;;;;;;;;;;;15.50;99.90;;;;;;5089624;28;19935;-73
2022/05/14 07:35:11;;;;;;;;;;;15.70;99.90;;;;;;5104479;28;19953;-72
2022/05/14 07:37:39;;;;;;;;;;;15.70;99.90;;;;;;5101135;28;19925;-70
2022/05/14 07:40:10;;;;;;;;;;;15.80;99.90;;;;;;5091161;28;19959;-70
2022/05/14 07:42:41;;;;;;;;;;;15.80;99.90;;;;;;5099459;28;19998;-72
2022/05/14 07:45:08;;;;;;;;;;;15.80;99.90;;;;;;5090029;28;20371;-72
2022/05/14 07:47:35;;;;;;;;;;;15.80;99.90;;;;;;5083349;28;20329;-74
2022/05/14 07:50:00;;;;;;;;;;;16.00;99.90;;;;;;5085638;28;19924;-72
2022/05/14 07:52:26;;;;;;;;;;;16.00;99.90;;;;;;5088862;28;19927;-72
2022/05/14 07:54:52;;;;;;;;;;;16.00;99.90;;;;;;5089052;28;20415;-70
2022/05/14 07:57:18;;;;;;;;;;;16.00;99.90;;;;;;5088528;28;19920;-70
2022/05/14 07:59:44;;;;;;;;;;;16.20;99.90;;;;;;5092635;28;20461;-71
2022/05/14 08:02:19;;;;;;;;;;;16.30;99.90;;;;;;5088816;28;20007;-70
2022/05/14 08:04:45;;;;;;;;;;;16.40;99.90;;;;;;5087195;28;20015;-71
2022/05/14 08:07:11;;;;;;;;;;;16.40;99.90;;;;;;5089221;28;20006;-70
2022/05/14 08:09:36;;;;;;;;;;;16.40;99.90;;;;;;5087057;28;19970;-71
2022/05/14 08:12:02;;;;;;;;;;;16.40;99.90;;;;;;5071608;28;20321;-72
2022/05/14 08:14:29;;;;;;;;;;;16.60;99.90;;;;;;5122333;28;19928;-72
2022/05/14 08:16:54;;;;;;;;;;;16.70;99.90;;;;;;5087450;28;19920;-73
2022/05/14 08:19:20;;;;;;;;;;;16.70;99.90;;;;;;5058536;28;20359;-71
2022/05/14 08:24:30;;;;;;;;;;;16.50;99.90;;;;;;5102278;28;20287;-72
2022/05/14 08:26:55;;;;;;;;;;;16.60;99.90;;;;;;5085340;28;19925;-73
2022/05/14 08:29:21;;;;;;;;;;;16.70;99.90;;;;;;5067824;28;20387;-72
2022/05/14 08:31:47;;;;;;;;;;;16.90;99.90;;;;;;5070125;28;20287;-74
2022/05/14 08:34:12;;;;;;;;;;;17.10;99.90;;;;;;5055313;28;20286;-73
2022/05/14 08:36:38;;;;;;;;;;;17.00;99.90;;;;;;5072382;28;19927;-71
2022/05/14 08:39:03;;;;;;;;;;;17.00;99.90;;;;;;5105707;28;19924;-70
2022/05/14 08:41:31;;;;;;;;;;;17.00;99.90;;;;;;5105489;28;19921;-71
2022/05/14 08:43:59;;;;;;;;;;;17.00;99.90;;;;;;5106128;28;19928;-71
2022/05/14 08:46:25;;;;;;;;;;;17.00;99.90;;;;;;5105352;28;20464;-74
2022/05/14 08:48:52;;;;;;;;;;;17.00;99.90;;;;;;5105301;28;19966;-73
2022/05/14 08:51:22;;;;;;;;;;;17.00;99.90;;;;;;5088572;28;19920;-73
2022/05/14 08:53:49;;;;;;;;;;;17.00;99.90;;;;;;5106340;27;19931;-72
2022/05/14 08:56:21;;;;;;;;;;;17.10;99.90;;;;;;5071512;28;19921;-73
2022/05/14 08:59:05;;;;;;;;;;;17.10;99.90;;;;;;5054564;28;19928;-75
2022/05/14 09:01:35;;;;;;;;;;;17.10;99.90;;;;;;5072105;28;19927;-72
2022/05/14 09:04:01;;;;;;;;;;;17.00;99.90;;;;;;5081297;28;19935;-73
2022/05/14 09:06:26;;;;;;;;;;;17.00;99.90;;;;;;5074663;28;20009;-73
2022/05/14 09:08:52;;;;;;;;;;;17.10;99.90;;;;;;5086201;28;19929;-71
2022/05/14 09:11:28;;;;;;;;;;;17.40;99.90;;;;;;5086303;28;20378;-75
2022/05/14 09:13:55;;;;;;;;;;;17.70;99.90;;;;;;5079805;28;20215;-73
2022/05/14 09:16:31;;;;;;;;;;;18.00;99.90;;;;;;5090359;28;19920;-74
2022/05/14 09:18:57;;;;;;;;;;;18.20;99.90;;;;;;5091127;28;20005;-73
2022/05/14 09:21:28;;;;;;;;;;;18.20;99.90;;;;;;5089874;28;20035;-73
2022/05/14 09:23:54;;;;;;;;;;;18.00;99.90;;;;;;5073681;28;20153;-74
2022/05/14 09:26:24;;;;;;;;;;;17.80;99.90;;;;;;5069962;28;20010;-73
2022/05/14 09:28:53;;;;;;;;;;;17.80;99.90;;;;;;5074485;28;19947;-74
2022/05/14 09:31:23;;;;;;;;;;;17.70;99.90;;;;;;5090975;28;20307;-77
2022/05/14 09:33:50;;;;;;;;;;;17.80;99.90;;;;;;5092449;28;19924;-72
2022/05/14 09:36:16;;;;;;;;;;;18.10;99.90;;;;;;5072016;28;19964;-77
2022/05/14 09:38:42;;;;;;;;;;;18.40;99.90;;;;;;5075079;28;19947;-75
2022/05/14 09:41:13;;;;;;;;;;;18.50;99.90;;;;;;5070525;28;20371;-75
2022/05/14 09:43:39;;;;;;;;;;;18.40;99.90;;;;;;5087717;28;19986;-77
2022/05/14 09:46:10;;;;;;;;;;;18.50;99.90;;;;;;5071010;28;19967;-70
2022/05/14 09:48:35;;;;;;;;;;;18.50;99.90;;;;;;5071369;28;19921;-77
2022/05/14 09:51:06;;;;;;;;;;;18.70;99.90;;;;;;5071672;28;19931;-68
2022/05/14 09:53:33;;;;;;;;;;;18.90;99.90;;;;;;5094632;28;19928;-75
2022/05/14 09:55:58;;;;;;;;;;;19.10;99.90;;;;;;5102144;28;19985;-78
2022/05/14 09:58:30;;;;;;;;;;;19.00;99.90;;;;;;5075196;28;19927;-70
2022/05/14 10:01:00;;;;;;;;;;;19.20;99.90;;;;;;5072017;28;20417;-73
2022/05/14 10:03:42;;;;;;;;;;;19.30;99.90;;;;;;5079647;28;19983;-72
2022/05/14 10:06:46;;;;;;;;;;;19.30;99.90;;;;;;5077694;28;19920;-71
2022/05/14 10:09:20;;;;;;;;;;;19.50;99.90;;;;;;5016925;28;19952;-72
2022/05/14 10:12:06;;;;;;;;;;;19.40;99.90;;;;;;5025170;28;20019;-71
2022/05/14 10:14:43;;;;;;;;;;;19.30;99.90;;;;;;5060014;28;19924;-70
2022/05/14 10:17:15;;;;;;;;;;;19.60;99.90;;;;;;5084222;28;19931;-70
2022/05/14 10:20:05;;;;;;;;;;;19.50;99.90;;;;;;5104918;27;19942;-71
2022/05/14 10:26:44;;;;;;;;;;;19.50;99.90;;;;;;5080002;28;19927;-71
2022/05/14 10:28:16;;;;;;;;;;;18.80;99.90;;;;;;5086561;28;20389;-69
2022/05/14 10:30:59;;;;;;;;;;;18.90;99.90;;;;;;5081053;28;20006;-74
2022/05/14 10:33:27;;;;;;;;;;;19.20;99.90;;;;;;5087334;28;20026;-72
2022/05/14 10:35:57;;;;;;;;;;;19.20;99.90;;;;;;5090433;28;19924;-71
2022/05/14 10:38:25;;;;;;;;;;;19.40;99.90;;;;;;5090314;28;20122;-72
2022/05/14 10:40:53;;;;;;;;;;;19.60;99.90;;;;;;5075352;28;19925;-70
2022/05/14 10:43:25;;;;;;;;;;;19.80;99.90;;;;;;5114366;27;19972;-68
2022/05/14 10:45:52;;;;;;;;;;;20.00;99.90;;;;;;5078724;28;19920;-70
2022/05/14 10:48:35;;;;;;;;;;;20.20;99.90;;;;;;5084319;28;19928;-71
2022/05/14 10:51:01;;;;;;;;;;;20.30;99.90;;;;;;5107069;27;20215;-68
2022/05/14 10:53:27;;;;;;;;;;;20.40;99.90;;;;;;5089241;28;19976;-75
2022/05/14 10:55:52;;;;;;;;;;;20.40;99.90;;;;;;5084187;28;21177;-70
2022/05/14 10:58:35;;;;;;;;;;;20.40;99.90;;;;;;5094380;28;20018;-70
2022/05/14 11:01:02;;;;;;;;;;;20.40;99.90;;;;;;5073764;28;19950;-69
2022/05/14 11:03:31;;;;;;;;;;;20.50;99.90;;;;;;5079021;28;20430;-72
2022/05/14 11:06:02;;;;;;;;;;;20.50;99.90;;;;;;5069656;28;19931;-66
2022/05/14 11:08:37;;;;;;;;;;;20.40;99.90;;;;;;5075215;28;19921;-68
2022/05/14 11:11:04;;;;;;;;;;;20.50;99.90;;;;;;5078033;28;20260;-69
2022/05/14 11:13:30;;;;;;;;;;;20.30;99.90;;;;;;5078626;28;20426;-69
2022/05/14 11:15:59;;;;;;;;;;;20.00;99.50;;;;;;5078791;28;19932;-72
2022/05/14 11:18:25;;;;;;;;;;;19.70;99.90;;;;;;5079123;28;19927;-70
2022/05/14 11:20:53;;;;;;;;;;;19.40;99.90;;;;;;5079350;28;19920;-70
2022/05/14 11:23:19;;;;;;;;;;;19.20;99.90;;;;;;5076674;28;19967;-71
2022/05/14 11:25:44;;;;;;;;;;;19.10;99.90;;;;;;5079384;28;19965;-71
2022/05/14 11:28:16;;;;;;;;;;;19.40;99.90;;;;;;5076311;28;19928;-74
2022/05/14 11:30:41;;;;;;;;;;;19.70;99.90;;;;;;5074835;28;19939;-70
2022/05/14 11:33:19;;;;;;;;;;;19.80;99.90;;;;;;5074434;28;20382;-72
2022/05/14 11:35:46;;;;;;;;;;;19.60;99.90;;;;;;5083476;28;19928;-71
2022/05/14 11:38:13;;;;;;;;;;;19.50;99.90;;;;;;5086852;28;20330;-71
2022/05/14 11:40:38;;;;;;;;;;;19.30;99.90;;;;;;5088328;28;20018;-70
2022/05/14 11:43:23;;;;;;;;;;;19.20;99.90;;;;;;5085334;28;20006;-73
2022/05/14 11:46:02;;;;;;;;;;;19.20;99.90;;;;;;5118262;27;19920;-72
2022/05/14 11:48:33;;;;;;;;;;;19.10;99.90;;;;;;5089207;28;20275;-71
2022/05/14 11:51:05;;;;;;;;;;;19.20;99.90;;;;;;5088177;28;19955;-73
2022/05/14 11:53:39;;;;;;;;;;;19.30;99.90;;;;;;5089847;28;19924;-70
2022/05/14 11:56:28;;;;;;;;;;;19.40;99.90;;;;;;5072568;28;19924;-71
2022/05/14 11:59:32;;;;;;;;;;;19.30;97.90;;;;;;5078013;28;19924;-72
2022/05/14 12:01:59;;;;;;;;;;;19.20;98.80;;;;;;4993372;28;19956;-72
2022/05/14 12:04:30;;;;;;;;;;;19.10;99.90;;;;;;5001931;28;19921;-73
2022/05/14 12:07:08;;;;;;;;;;;19.10;99.90;;;;;;5049328;28;19965;-72
2022/05/14 12:09:44;;;;;;;;;;;19.20;99.90;;;;;;5092246;28;20026;-71
2022/05/14 12:12:14;;;;;;;;;;;19.40;99.90;;;;;;5088002;28;19924;-72
2022/05/14 12:14:40;;;;;;;;;;;19.60;99.90;;;;;;5110870;27;19943;-70
2022/05/14 12:17:06;;;;;;;;;;;19.80;99.90;;;;;;5076181;28;19924;-69
2022/05/14 12:19:34;;;;;;;;;;;20.00;99.90;;;;;;5126689;27;19927;-72
2022/05/14 12:22:05;;;;;;;;;;;20.10;99.90;;;;;;5092265;28;19928;-72
2022/05/14 12:24:33;;;;;;;;;;;20.30;99.90;;;;;;5093073;28;19924;-73
2022/05/14 12:26:59;;;;;;;;;;;20.40;99.00;;;;;;5076100;28;20264;-72
2022/05/14 12:29:26;;;;;;;;;;;20.40;99.70;;;;;;5092547;28;19931;-75
2022/05/14 12:34:44;;;;;;;;;;;20.30;99.20;;;;;;5087873;28;19970;-72
2022/05/14 12:37:17;;;;;;;;;;;20.20;99.90;;;;;;5104945;27;19928;-72
2022/05/14 12:39:43;;;;;;;;;;;20.40;99.90;;;;;;5072846;28;20019;-69
2022/05/14 12:42:09;;;;;;;;;;;20.50;98.70;;;;;;5072603;28;19920;-71
2022/05/14 12:44:36;;;;;;;;;;;20.60;99.90;;;;;;5072503;28;20163;-72
2022/05/14 12:47:03;;;;;;;;;;;20.80;99.90;;;;;;5072058;28;19920;-72
2022/05/14 12:49:29;;;;;;;;;;;20.90;99.90;;;;;;5073395;28;20390;-69
2022/05/14 12:51:56;;;;;;;;;;;21.00;96.80;;;;;;5077529;28;19931;-70
2022/05/14 12:54:29;;;;;;;;;;;20.80;96.40;;;;;;5070587;28;20307;-71
2022/05/14 12:56:56;;;;;;;;;;;20.80;98.60;;;;;;5072768;28;19931;-71
2022/05/14 12:59:22;;;;;;;;;;;20.90;99.90;;;;;;5072634;28;20011;-69
2022/05/14 13:01:49;;;;;;;;;;;20.90;93.90;;;;;;5072757;28;20003;-70
2022/05/14 13:04:15;;;;;;;;;;;20.90;92.70;;;;;;5084154;28;19923;-72
2022/05/14 13:06:45;;;;;;;;;;;20.80;94.70;;;;;;5092862;28;19920;-70
2022/05/14 13:09:11;;;;;;;;;;;20.60;99.80;;;;;;5092029;28;20445;-71
2022/05/14 13:11:44;;;;;;;;;;;20.30;97.50;;;;;;5090236;28;19924;-72
2022/05/14 13:14:12;;;;;;;;;;;20.00;98.80;;;;;;5092658;28;19932;-72
2022/05/14 13:16:38;;;;;;;;;;;19.80;97.90;;;;;;5084728;28;19924;-75
2022/05/14 13:19:24;;;;;;;;;;;19.60;96.90;;;;;;5075440;28;19931;-71
2022/05/14 13:21:51;;;;;;;;;;;19.60;99.90;;;;;;5080921;28;19920;-71
2022/05/14 13:24:21;;;;;;;;;;;19.90;99.80;;;;;;5091474;28;19920;-71
2022/05/14 13:26:48;;;;;;;;;;;20.00;98.20;;;;;;5056238;28;19927;-72
2022/05/14 13:29:23;;;;;;;;;;;19.80;96.10;;;;;;5071670;28;19943;-73
2022/05/14 13:31:51;;;;;;;;;;;19.60;98.10;;;;;;5085590;28;20286;-71
2022/05/14 13:37:36;;;;;;;;;;;19.30;99.50;;;;;;5084866;28;19946;-72
2022/05/14 13:40:21;;;;;;;;;;;19.20;99.90;;;;;;5089565;28;19923;-71
2022/05/14 13:42:49;;;;;;;;;;;19.30;99.90;;;;;;5078946;28;19928;-69
2022/05/14 13:45:22;;;;;;;;;;;19.50;99.90;;;;;;5088918;28;19924;-71
2022/05/14 13:47:49;;;;;;;;;;;19.80;96.90;;;;;;5088251;28;19976;-71
2022/05/14 13:50:21;;;;;;;;;;;19.80;98.40;;;;;;5103867;28;19925;-71
2022/05/14 13:52:51;;;;;;;;;;;19.60;97.40;;;;;;5105595;28;19936;-72
2022/05/14 13:55:27;;;;;;;;;;;19.50;97.90;;;;;;5104080;27;19921;-71
2022/05/14 13:57:54;;;;;;;;;;;19.40;98.40;;;;;;5105111;28;19925;-71
2022/05/14 14:00:21;;;;;;;;;;;19.20;97.60;;;;;;5103626;28;20302;-71
2022/05/14 14:02:59;;;;;;;;;;;19.10;98.50;;;;;;5104865;28;19917;-73
2022/05/14 14:05:24;;;;;;;;;;;19.20;99.90;;;;;;5070895;28;19975;-69
2022/05/14 14:07:50;;;;;;;;;;;19.20;97.70;;;;;;5071512;28;20340;-71
2022/05/14 14:10:20;;;;;;;;;;;19.20;97.10;;;;;;5073627;28;20271;-71
2022/05/14 14:12:45;;;;;;;;;;;19.10;96.80;;;;;;5082228;28;19984;-73
2022/05/14 14:15:15;;;;;;;;;;;19.00;97.00;;;;;;5104689;28;19959;-70
2022/05/14 14:17:44;;;;;;;;;;;19.00;97.20;;;;;;5104968;28;20362;-72
2022/05/14 14:20:10;;;;;;;;;;;19.10;99.50;;;;;;5070416;28;19989;-72
2022/05/14 14:22:37;;;;;;;;;;;19.40;97.90;;;;;;5070324;28;19928;-71
2022/05/14 14:25:03;;;;;;;;;;;19.70;94.90;;;;;;5087052;28;20367;-72
2022/05/14 14:27:29;;;;;;;;;;;19.50;92.30;;;;;;5087226;28;20355;-71
2022/05/14 14:29:57;;;;;;;;;;;19.40;97.50;;;;;;5073149;28;19946;-71
2022/05/14 14:32:27;;;;;;;;;;;19.20;98.90;;;;;;5103847;28;19924;-71
2022/05/14 14:34:53;;;;;;;;;;;19.10;97.60;;;;;;5104057;28;20440;-71
2022/05/14 14:37:18;;;;;;;;;;;19.00;98.20;;;;;;5103687;28;19928;-71
2022/05/14 14:39:44;;;;;;;;;;;19.00;98.40;;;;;;5102791;28;19921;-70
2022/05/14 14:42:12;;;;;;;;;;;18.90;98.10;;;;;;5104343;28;19924;-72
2022/05/14 14:44:41;;;;;;;;;;;18.80;99.00;;;;;;5086744;28;20421;-71
2022/05/14 14:47:07;;;;;;;;;;;18.90;98.80;;;;;;5104204;28;19921;-70